Time;durP1;ratioP1;P1;durP2;ratioP2;P2;SDS_P1;SDS_P2;PMS_P1;PMS_P2;Temp;Humidity;BMP_temperature;BMP_pressure;BME280_temperature;BME280_humidity;BME280_pressure;Samples;Min_cycle;Max_cycle;Signal;HPM_P1;HPM_P2
2022/04/05 00:00:43;;;;;;;;;;;18.30;46.90;;;;;;5010740;28;19921;-65
2022/04/05 00:03:08;;;;;;;;;;;18.30;46.90;;;;;;5044511;28;19924;-66
2022/04/05 00:05:34;;;;;;;;;;;18.30;46.90;;;;;;5040978;28;19917;-60
2022/04/05 00:07:59;;;;;;;;;;;18.20;46.90;;;;;;5018965;28;20389;-65
2022/04/05 00:10:25;;;;;;;;;;;18.20;46.90;;;;;;5018721;28;19929;-66
2022/04/05 00:12:51;;;;;;;;;;;18.20;47.00;;;;;;5039557;28;20432;-65
2022/04/05 00:15:16;;;;;;;;;;;18.20;47.00;;;;;;5044240;28;19924;-66
2022/04/05 00:17:42;;;;;;;;;;;18.20;47.00;;;;;;5019553;28;19918;-66
2022/04/05 00:20:07;;;;;;;;;;;18.20;47.10;;;;;;5004532;28;19929;-66
2022/04/05 00:22:33;;;;;;;;;;;18.10;47.00;;;;;;5022551;28;20303;-65
2022/04/05 00:24:58;;;;;;;;;;;18.20;47.10;;;;;;5040009;28;20007;-65
2022/04/05 00:27:24;;;;;;;;;;;18.10;47.00;;;;;;5025351;28;19988;-66
2022/04/05 00:29:49;;;;;;;;;;;18.10;47.10;;;;;;5003748;28;19914;-66
2022/04/05 00:32:15;;;;;;;;;;;18.10;47.10;;;;;;5027849;28;20341;-65
2022/04/05 00:34:40;;;;;;;;;;;18.10;47.10;;;;;;5043572;28;19924;-62
2022/04/05 00:37:06;;;;;;;;;;;18.10;47.20;;;;;;5031982;28;19948;-66
2022/04/05 00:39:31;;;;;;;;;;;18.10;47.20;;;;;;5007587;28;20379;-66
2022/04/05 00:41:57;;;;;;;;;;;18.10;47.20;;;;;;5014218;28;19964;-65
2022/04/05 00:44:22;;;;;;;;;;;18.10;47.20;;;;;;5023689;28;19925;-65
2022/04/05 00:46:49;;;;;;;;;;;18.10;47.20;;;;;;5027678;28;19925;-66
2022/04/05 00:49:19;;;;;;;;;;;18.10;47.20;;;;;;5009179;28;20362;-65
2022/04/05 00:51:45;;;;;;;;;;;18.10;47.20;;;;;;5011071;28;19924;-66
2022/04/05 00:54:10;;;;;;;;;;;18.10;47.20;;;;;;5023357;28;19917;-66
2022/04/05 00:56:36;;;;;;;;;;;18.10;47.20;;;;;;5021804;28;19963;-66
2022/04/05 00:59:01;;;;;;;;;;;18.10;47.20;;;;;;5022812;28;20448;-66
2022/04/05 01:01:27;;;;;;;;;;;18.10;47.30;;;;;;5035718;28;19917;-65
2022/04/05 01:03:53;;;;;;;;;;;18.10;47.30;;;;;;5008733;28;20362;-64
2022/04/05 01:06:25;;;;;;;;;;;18.10;47.30;;;;;;5019971;28;19917;-66
2022/04/05 01:08:50;;;;;;;;;;;18.10;47.30;;;;;;5036747;28;19953;-63
2022/04/05 01:11:16;;;;;;;;;;;18.10;47.30;;;;;;5043147;28;20387;-61
2022/04/05 01:13:41;;;;;;;;;;;18.10;47.30;;;;;;5018417;28;19921;-66
2022/04/05 01:16:07;;;;;;;;;;;18.00;47.30;;;;;;5034748;28;19913;-66
2022/04/05 01:18:33;;;;;;;;;;;18.10;47.40;;;;;;5032754;28;19924;-65
2022/04/05 01:20:59;;;;;;;;;;;18.00;47.30;;;;;;5041634;28;19928;-60
2022/04/05 01:23:24;;;;;;;;;;;18.10;47.40;;;;;;5022345;28;19971;-61
2022/04/05 01:25:51;;;;;;;;;;;18.10;47.40;;;;;;5002983;28;19914;-64
2022/04/05 01:28:16;;;;;;;;;;;18.10;47.30;;;;;;5017360;28;19957;-63
2022/04/05 01:30:42;;;;;;;;;;;18.10;47.40;;;;;;5032847;28;19975;-65
2022/04/05 01:33:07;;;;;;;;;;;18.10;47.40;;;;;;5011406;28;19913;-65
2022/04/05 01:35:34;;;;;;;;;;;18.10;47.30;;;;;;5023263;28;19939;-67
2022/04/05 01:38:03;;;;;;;;;;;18.10;47.30;;;;;;5034163;28;19920;-65
2022/04/05 01:40:28;;;;;;;;;;;18.10;47.30;;;;;;5040723;28;20027;-66
2022/04/05 01:42:53;;;;;;;;;;;18.20;47.30;;;;;;5033044;28;19974;-66
2022/04/05 01:45:19;;;;;;;;;;;18.10;47.30;;;;;;5022083;28;19925;-61
2022/04/05 01:47:44;;;;;;;;;;;18.10;47.30;;;;;;5029763;28;19912;-63
2022/04/05 01:50:10;;;;;;;;;;;18.20;47.20;;;;;;5041331;28;19921;-65
2022/04/05 01:52:35;;;;;;;;;;;18.20;47.20;;;;;;5036133;28;19928;-64
2022/04/05 01:55:01;;;;;;;;;;;18.10;47.20;;;;;;5022888;28;20702;-63
2022/04/05 01:57:26;;;;;;;;;;;18.10;47.20;;;;;;5025852;28;19920;-65
2022/04/05 01:59:52;;;;;;;;;;;18.20;47.20;;;;;;5039426;28;20136;-63
2022/04/05 02:02:17;;;;;;;;;;;18.20;47.20;;;;;;5040341;28;19920;-66
2022/04/05 02:04:43;;;;;;;;;;;18.20;47.20;;;;;;5022109;28;19918;-65
2022/04/05 02:07:11;;;;;;;;;;;18.20;47.20;;;;;;5021700;28;19917;-66
2022/04/05 02:09:37;;;;;;;;;;;18.20;47.20;;;;;;5001951;28;20023;-66
2022/04/05 02:12:03;;;;;;;;;;;18.20;47.20;;;;;;5002548;28;20741;-65
2022/04/05 02:14:29;;;;;;;;;;;18.10;47.10;;;;;;5039224;28;19943;-65
2022/04/05 02:16:54;;;;;;;;;;;18.10;47.20;;;;;;5041359;28;19921;-65
2022/04/05 02:19:20;;;;;;;;;;;18.10;47.20;;;;;;5023935;28;19917;-65
2022/04/05 02:21:45;;;;;;;;;;;18.10;47.20;;;;;;5021984;28;20322;-65
2022/04/05 02:24:11;;;;;;;;;;;18.10;47.20;;;;;;5036534;28;19987;-66
2022/04/05 02:26:36;;;;;;;;;;;18.00;47.20;;;;;;5041659;28;20340;-62
2022/04/05 02:29:02;;;;;;;;;;;18.00;47.40;;;;;;5028562;28;19913;-66
2022/04/05 02:31:28;;;;;;;;;;;17.90;47.40;;;;;;5021879;28;19967;-65
2022/04/05 02:33:53;;;;;;;;;;;17.90;47.70;;;;;;5032591;28;19968;-65
2022/04/05 02:36:19;;;;;;;;;;;17.80;47.70;;;;;;5040661;28;19917;-66
2022/04/05 02:38:44;;;;;;;;;;;17.80;47.80;;;;;;5031933;28;19928;-65
2022/04/05 02:41:10;;;;;;;;;;;17.70;47.90;;;;;;5030381;28;19929;-61
2022/04/05 02:43:35;;;;;;;;;;;17.80;48.00;;;;;;5035845;28;19923;-65
2022/04/05 02:46:00;;;;;;;;;;;17.70;47.90;;;;;;5040397;28;19947;-65
2022/04/05 02:48:26;;;;;;;;;;;17.70;48.00;;;;;;5033748;28;19924;-65
2022/04/05 02:50:51;;;;;;;;;;;17.70;48.00;;;;;;5021891;28;19917;-66
2022/04/05 02:53:17;;;;;;;;;;;17.80;48.10;;;;;;5040190;28;19951;-65
2022/04/05 02:55:43;;;;;;;;;;;17.70;48.00;;;;;;5017150;28;19968;-66
2022/04/05 02:58:08;;;;;;;;;;;17.70;48.00;;;;;;5003911;28;19921;-66
2022/04/05 03:00:35;;;;;;;;;;;17.70;48.00;;;;;;5039143;28;19974;-65
2022/04/05 03:03:00;;;;;;;;;;;17.70;48.00;;;;;;5042006;28;19916;-66
2022/04/05 03:05:26;;;;;;;;;;;17.80;48.10;;;;;;5021934;28;20022;-65
2022/04/05 03:07:51;;;;;;;;;;;17.70;48.10;;;;;;5021951;28;19917;-66
2022/04/05 03:10:17;;;;;;;;;;;17.70;48.10;;;;;;5038918;28;19917;-65
2022/04/05 03:12:42;;;;;;;;;;;17.70;48.10;;;;;;5041074;28;20351;-66
2022/04/05 03:15:08;;;;;;;;;;;17.70;48.00;;;;;;5025264;28;19917;-65
2022/04/05 03:17:34;;;;;;;;;;;17.70;48.00;;;;;;5020471;28;20343;-65
2022/04/05 03:19:59;;;;;;;;;;;17.70;48.00;;;;;;5037782;28;20297;-62
2022/04/05 03:22:25;;;;;;;;;;;17.70;48.00;;;;;;5045224;28;19924;-65
2022/04/05 03:24:50;;;;;;;;;;;17.70;47.90;;;;;;5032328;28;19916;-64
2022/04/05 03:27:16;;;;;;;;;;;17.70;47.90;;;;;;5024962;28;19920;-65
2022/04/05 03:29:41;;;;;;;;;;;17.70;47.90;;;;;;5034145;28;20651;-65
2022/04/05 03:32:08;;;;;;;;;;;17.80;47.90;;;;;;5034904;28;19917;-65
2022/04/05 03:34:34;;;;;;;;;;;17.80;47.90;;;;;;5024985;28;19917;-65
2022/04/05 03:37:00;;;;;;;;;;;17.80;47.90;;;;;;5040159;28;19932;-61
2022/04/05 03:39:25;;;;;;;;;;;17.80;47.90;;;;;;5030549;28;19938;-65
2022/04/05 03:41:50;;;;;;;;;;;17.80;47.90;;;;;;5044381;28;19960;-65
2022/04/05 03:44:16;;;;;;;;;;;17.80;47.90;;;;;;5040597;28;19913;-66
2022/04/05 03:46:41;;;;;;;;;;;17.80;47.90;;;;;;5024604;28;20035;-60
2022/04/05 03:49:07;;;;;;;;;;;17.80;47.90;;;;;;5025885;28;19921;-65
2022/04/05 03:51:32;;;;;;;;;;;17.80;47.80;;;;;;5044409;28;19916;-65
2022/04/05 03:53:58;;;;;;;;;;;17.80;47.80;;;;;;5043996;28;20611;-65
2022/04/05 03:56:23;;;;;;;;;;;17.90;47.80;;;;;;5023988;28;19916;-66
2022/04/05 03:58:49;;;;;;;;;;;17.90;47.90;;;;;;5023506;28;19925;-65
2022/04/05 04:01:15;;;;;;;;;;;17.90;47.90;;;;;;5042932;28;19927;-65
2022/04/05 04:03:40;;;;;;;;;;;17.80;47.80;;;;;;5044294;28;19916;-65
2022/04/05 04:06:05;;;;;;;;;;;17.90;47.90;;;;;;5026798;28;19939;-66
2022/04/05 04:08:31;;;;;;;;;;;17.90;47.80;;;;;;5020649;28;20662;-65
2022/04/05 04:10:56;;;;;;;;;;;17.90;47.80;;;;;;5030666;28;19925;-65
2022/04/05 04:13:22;;;;;;;;;;;17.90;48.40;;;;;;5024321;28;19917;-65
2022/04/05 04:15:47;;;;;;;;;;;17.90;47.70;;;;;;5024547;28;20550;-65
2022/04/05 04:18:13;;;;;;;;;;;17.90;47.80;;;;;;5025166;28;19928;-62
2022/04/05 04:20:38;;;;;;;;;;;18.00;47.80;;;;;;5043404;28;19929;-65
2022/04/05 04:23:04;;;;;;;;;;;18.00;47.80;;;;;;5045537;28;19913;-65
2022/04/05 04:25:31;;;;;;;;;;;18.00;47.70;;;;;;5035222;28;20000;-60
2022/04/05 04:27:56;;;;;;;;;;;18.00;47.70;;;;;;5025720;28;20329;-65
2022/04/05 04:30:22;;;;;;;;;;;18.00;47.70;;;;;;5030375;28;19920;-63
2022/04/05 04:32:47;;;;;;;;;;;18.00;47.60;;;;;;5044557;28;19973;-65
2022/04/05 04:35:13;;;;;;;;;;;18.00;47.60;;;;;;5038358;28;19960;-65
2022/04/05 04:37:38;;;;;;;;;;;18.00;47.60;;;;;;5023664;28;20518;-65
2022/04/05 04:40:04;;;;;;;;;;;18.00;47.60;;;;;;5026570;28;19978;-66
2022/04/05 04:42:31;;;;;;;;;;;18.10;47.70;;;;;;5042894;28;20000;-65
2022/04/05 04:44:57;;;;;;;;;;;18.10;47.70;;;;;;5041072;28;21467;-65
2022/04/05 04:47:22;;;;;;;;;;;18.10;47.70;;;;;;5023459;28;20302;-65
2022/04/05 04:49:47;;;;;;;;;;;18.10;47.70;;;;;;5022684;28;20002;-64
2022/04/05 04:52:13;;;;;;;;;;;18.10;47.80;;;;;;5042842;28;19921;-61
2022/04/05 04:54:38;;;;;;;;;;;18.10;47.80;;;;;;5043205;28;19917;-61
2022/04/05 04:57:04;;;;;;;;;;;18.10;47.90;;;;;;5025596;28;20393;-65
2022/04/05 04:59:29;;;;;;;;;;;18.10;48.00;;;;;;5022492;28;19953;-64
2022/04/05 05:01:55;;;;;;;;;;;18.20;48.10;;;;;;5038763;28;19917;-66
2022/04/05 05:04:20;;;;;;;;;;;18.20;48.10;;;;;;5043194;28;19967;-64
2022/04/05 05:06:46;;;;;;;;;;;18.30;48.20;;;;;;5028905;28;19914;-64
2022/04/05 05:09:11;;;;;;;;;;;18.30;48.30;;;;;;5022172;28;19967;-67
2022/04/05 05:11:37;;;;;;;;;;;18.30;48.30;;;;;;5034731;28;20395;-64
2022/04/05 05:14:02;;;;;;;;;;;18.40;48.50;;;;;;5042167;28;20615;-63
2022/04/05 05:16:28;;;;;;;;;;;18.40;48.40;;;;;;5032309;28;19913;-64
2022/04/05 05:18:53;;;;;;;;;;;18.40;48.30;;;;;;5021890;28;20367;-64
2022/04/05 05:21:19;;;;;;;;;;;18.40;48.30;;;;;;5028001;28;20045;-62
2022/04/05 05:23:45;;;;;;;;;;;18.40;48.20;;;;;;5039928;28;20631;-64
2022/04/05 05:26:10;;;;;;;;;;;18.40;48.10;;;;;;5034104;28;19932;-64
2022/04/05 05:28:35;;;;;;;;;;;18.40;48.10;;;;;;5020544;28;19917;-62
2022/04/05 05:31:01;;;;;;;;;;;18.40;48.20;;;;;;5025215;28;19946;-65
2022/04/05 05:33:26;;;;;;;;;;;18.40;48.40;;;;;;5040888;28;20093;-64
2022/04/05 05:35:52;;;;;;;;;;;18.40;48.40;;;;;;5039358;28;19917;-61
2022/04/05 05:38:17;;;;;;;;;;;18.40;48.40;;;;;;5022412;28;19921;-59
2022/04/05 05:40:43;;;;;;;;;;;18.40;48.40;;;;;;5021558;28;19927;-60
2022/04/05 05:43:09;;;;;;;;;;;18.40;48.50;;;;;;5025621;28;19940;-65
2022/04/05 05:45:35;;;;;;;;;;;18.40;48.40;;;;;;5022178;28;19928;-65
2022/04/05 05:48:01;;;;;;;;;;;18.40;48.50;;;;;;5041430;28;19917;-66
2022/04/05 05:50:27;;;;;;;;;;;18.40;48.50;;;;;;5041353;28;19919;-65
2022/04/05 05:52:52;;;;;;;;;;;18.40;48.60;;;;;;5025287;28;20000;-64
2022/04/05 05:55:18;;;;;;;;;;;18.40;48.60;;;;;;5021720;28;19913;-64
2022/04/05 05:57:43;;;;;;;;;;;18.40;48.70;;;;;;5036924;28;19940;-64
2022/04/05 06:00:09;;;;;;;;;;;18.40;48.80;;;;;;5041443;28;19959;-65
2022/04/05 06:02:36;;;;;;;;;;;18.30;48.80;;;;;;5029340;28;19914;-64
2022/04/05 06:05:01;;;;;;;;;;;18.30;48.70;;;;;;5022282;28;19928;-64
2022/04/05 06:07:27;;;;;;;;;;;18.30;48.80;;;;;;5033098;28;21076;-64
2022/04/05 06:09:52;;;;;;;;;;;18.30;48.90;;;;;;5040018;28;19964;-64
2022/04/05 06:12:18;;;;;;;;;;;18.20;48.80;;;;;;5031254;28;19916;-64
2022/04/05 06:14:43;;;;;;;;;;;18.20;48.90;;;;;;5020810;28;19913;-63
2022/04/05 06:17:08;;;;;;;;;;;18.20;48.90;;;;;;5029259;28;20389;-65
2022/04/05 06:19:34;;;;;;;;;;;18.10;49.00;;;;;;5041552;28;19916;-64
2022/04/05 06:22:00;;;;;;;;;;;18.10;49.10;;;;;;5036276;28;19921;-64
2022/04/05 06:24:25;;;;;;;;;;;18.00;49.10;;;;;;5021170;28;19913;-64
2022/04/05 06:26:51;;;;;;;;;;;18.00;49.40;;;;;;5024618;28;19909;-64
2022/04/05 06:29:16;;;;;;;;;;;17.90;49.40;;;;;;5040828;28;20390;-65
2022/04/05 06:31:41;;;;;;;;;;;18.00;49.40;;;;;;5040235;28;19913;-65
2022/04/05 06:34:07;;;;;;;;;;;18.00;49.30;;;;;;5022700;28;19909;-65
2022/04/05 06:36:32;;;;;;;;;;;18.00;49.30;;;;;;5021620;28;19916;-63
2022/04/05 06:38:58;;;;;;;;;;;18.00;49.30;;;;;;5040367;28;20499;-63
2022/04/05 06:41:23;;;;;;;;;;;18.00;49.30;;;;;;5041548;28;19917;-63
2022/04/05 06:43:49;;;;;;;;;;;18.00;49.50;;;;;;5023945;28;19909;-63
2022/04/05 06:46:15;;;;;;;;;;;18.00;49.40;;;;;;5020664;28;20329;-62
2022/04/05 06:48:41;;;;;;;;;;;17.90;49.40;;;;;;5036173;28;19947;-62
2022/04/05 06:51:06;;;;;;;;;;;17.90;49.50;;;;;;5042012;28;20364;-62
2022/04/05 06:53:32;;;;;;;;;;;17.90;49.60;;;;;;5029644;28;19916;-63
2022/04/05 06:55:58;;;;;;;;;;;17.90;49.50;;;;;;5025286;28;19976;-63
2022/04/05 06:58:23;;;;;;;;;;;17.90;49.50;;;;;;5037303;28;20004;-62
2022/04/05 07:00:49;;;;;;;;;;;17.90;49.50;;;;;;5045156;28;19959;-62
2022/04/05 07:03:14;;;;;;;;;;;17.90;49.40;;;;;;5045525;28;19909;-63
2022/04/05 07:05:39;;;;;;;;;;;17.90;49.40;;;;;;5045138;28;20360;-62
2022/04/05 07:08:05;;;;;;;;;;;17.90;49.40;;;;;;5036929;28;19915;-62
2022/04/05 07:10:30;;;;;;;;;;;17.90;49.40;;;;;;5039329;28;19920;-62
2022/04/05 07:12:56;;;;;;;;;;;17.90;49.40;;;;;;5031306;28;19939;-62
2022/04/05 07:15:21;;;;;;;;;;;17.90;49.30;;;;;;5044767;28;19913;-62
2022/04/05 07:17:47;;;;;;;;;;;17.90;49.30;;;;;;5040728;28;19971;-63
2022/04/05 07:20:12;;;;;;;;;;;17.90;49.30;;;;;;5024623;28;19921;-63
2022/04/05 07:22:45;;;;;;;;;;;17.90;49.20;;;;;;5027625;28;19917;-63
2022/04/05 07:25:10;;;;;;;;;;;17.90;49.30;;;;;;5039097;28;19913;-62
2022/04/05 07:27:36;;;;;;;;;;;17.90;49.30;;;;;;5045149;28;19982;-62
2022/04/05 07:30:01;;;;;;;;;;;17.90;49.20;;;;;;5017540;28;19913;-62
2022/04/05 07:32:27;;;;;;;;;;;17.90;49.20;;;;;;5005457;28;19917;-62
2022/04/05 07:34:52;;;;;;;;;;;17.90;49.20;;;;;;5024508;28;19913;-62
2022/04/05 07:37:17;;;;;;;;;;;17.90;49.20;;;;;;5024372;28;20709;-63
2022/04/05 07:39:43;;;;;;;;;;;17.90;49.20;;;;;;5005531;28;19918;-62
2022/04/05 07:42:08;;;;;;;;;;;17.90;49.10;;;;;;5004761;28;19928;-62
2022/04/05 07:44:34;;;;;;;;;;;17.90;49.10;;;;;;5020764;28;19913;-63
2022/04/05 07:47:00;;;;;;;;;;;17.90;49.00;;;;;;5043875;28;19935;-63
2022/04/05 07:49:25;;;;;;;;;;;17.90;49.00;;;;;;5028853;28;19913;-63
2022/04/05 07:51:51;;;;;;;;;;;17.90;49.00;;;;;;5006924;28;19964;-62
2022/04/05 07:54:16;;;;;;;;;;;17.90;48.90;;;;;;5021422;28;20329;-63
2022/04/05 07:56:41;;;;;;;;;;;17.90;49.00;;;;;;5044118;28;19971;-62
2022/04/05 07:59:07;;;;;;;;;;;18.00;48.90;;;;;;5034128;28;19909;-63
2022/04/05 08:01:32;;;;;;;;;;;18.00;48.90;;;;;;5012678;28;19913;-63
2022/04/05 08:03:58;;;;;;;;;;;18.00;48.90;;;;;;5013851;28;19913;-62
2022/04/05 08:06:31;;;;;;;;;;;18.00;48.90;;;;;;5043375;28;19913;-63
2022/04/05 08:08:57;;;;;;;;;;;18.00;48.90;;;;;;5034823;28;19913;-63
2022/04/05 08:11:22;;;;;;;;;;;18.00;48.80;;;;;;5009769;28;19909;-63
2022/04/05 08:13:47;;;;;;;;;;;18.00;48.80;;;;;;5008939;28;19921;-62
2022/04/05 08:16:13;;;;;;;;;;;18.00;48.70;;;;;;5023973;28;20459;-63
2022/04/05 08:18:38;;;;;;;;;;;18.00;48.70;;;;;;5036433;28;19913;-63
2022/04/05 08:21:04;;;;;;;;;;;18.10;48.70;;;;;;5016181;28;20153;-63
2022/04/05 08:23:29;;;;;;;;;;;18.10;48.60;;;;;;5005549;28;19920;-63
2022/04/05 08:25:55;;;;;;;;;;;18.10;48.60;;;;;;5038193;28;20283;-63
2022/04/05 08:28:20;;;;;;;;;;;18.10;48.50;;;;;;5036163;28;19914;-62
2022/04/05 08:30:46;;;;;;;;;;;18.10;48.50;;;;;;5023130;28;19909;-62
2022/04/05 08:33:11;;;;;;;;;;;18.10;48.50;;;;;;5023362;28;19913;-62
2022/04/05 08:35:37;;;;;;;;;;;18.10;48.50;;;;;;5019879;28;20368;-62
2022/04/05 08:38:03;;;;;;;;;;;18.10;48.50;;;;;;5003598;28;19921;-62
2022/04/05 08:40:28;;;;;;;;;;;18.10;48.40;;;;;;5029149;28;19925;-62
2022/04/05 08:42:54;;;;;;;;;;;18.10;48.40;;;;;;5042467;28;19913;-62
2022/04/05 08:45:20;;;;;;;;;;;18.10;48.30;;;;;;5028357;28;19974;-63
2022/04/05 08:48:11;;;;;;;;;;;18.10;48.30;;;;;;5006196;28;20008;-62
2022/04/05 08:50:37;;;;;;;;;;;18.20;48.30;;;;;;5018562;28;20009;-62
2022/04/05 08:53:03;;;;;;;;;;;18.20;48.30;;;;;;5023384;28;19916;-62
2022/04/05 08:55:28;;;;;;;;;;;18.20;48.30;;;;;;5008852;28;19921;-63
2022/04/05 08:57:56;;;;;;;;;;;18.20;48.30;;;;;;5003751;28;19967;-63
2022/04/05 09:00:23;;;;;;;;;;;18.20;48.30;;;;;;5020546;28;20009;-62
2022/04/05 09:02:55;;;;;;;;;;;18.20;48.20;;;;;;5043011;28;19913;-62
2022/04/05 09:05:27;;;;;;;;;;;18.20;48.20;;;;;;5032080;28;20550;-62
2022/04/05 09:07:53;;;;;;;;;;;18.20;48.20;;;;;;5005948;28;19920;-62
2022/04/05 09:10:19;;;;;;;;;;;18.20;48.20;;;;;;5018841;28;19909;-62
2022/04/05 09:12:45;;;;;;;;;;;18.30;48.30;;;;;;5043936;28;19916;-62
2022/04/05 09:15:23;;;;;;;;;;;18.30;48.20;;;;;;5043466;28;19916;-63
2022/04/05 09:17:48;;;;;;;;;;;18.20;48.20;;;;;;5043535;28;20428;-63
2022/04/05 09:20:16;;;;;;;;;;;18.30;48.30;;;;;;5034405;28;20354;-62
2022/04/05 09:22:41;;;;;;;;;;;18.30;48.20;;;;;;5017709;28;19918;-62
2022/04/05 09:25:07;;;;;;;;;;;18.30;48.20;;;;;;5017590;28;19978;-62
2022/04/05 09:27:48;;;;;;;;;;;18.30;48.20;;;;;;5022686;28;19995;-62
2022/04/05 09:30:18;;;;;;;;;;;18.30;48.20;;;;;;5035221;28;20665;-62
2022/04/05 09:32:47;;;;;;;;;;;18.30;48.10;;;;;;5009736;28;19951;-63
2022/04/05 09:35:12;;;;;;;;;;;18.30;48.20;;;;;;5008316;28;20587;-62
2022/04/05 09:37:41;;;;;;;;;;;18.30;48.20;;;;;;5034980;28;19909;-63
2022/04/05 09:40:26;;;;;;;;;;;18.30;48.80;;;;;;5029854;28;19916;-63
2022/04/05 09:43:12;;;;;;;;;;;18.30;48.20;;;;;;5002740;28;19914;-62
2022/04/05 09:45:40;;;;;;;;;;;18.30;48.10;;;;;;5009528;28;20018;-62
2022/04/05 09:48:05;;;;;;;;;;;18.30;48.20;;;;;;5042660;28;19909;-62
2022/04/05 09:50:31;;;;;;;;;;;18.40;48.20;;;;;;5034889;28;19913;-63
2022/04/05 09:52:57;;;;;;;;;;;18.30;48.20;;;;;;5007710;28;19918;-62
2022/04/05 09:55:25;;;;;;;;;;;18.30;48.20;;;;;;5037119;28;19913;-63
2022/04/05 09:57:51;;;;;;;;;;;18.30;48.10;;;;;;5020951;28;20575;-62
2022/04/05 10:00:17;;;;;;;;;;;18.30;48.10;;;;;;5034249;28;19982;-62
2022/04/05 10:03:02;;;;;;;;;;;18.30;48.20;;;;;;5013431;28;20052;-62
2022/04/05 10:05:28;;;;;;;;;;;18.30;48.10;;;;;;5004999;28;19925;-62
2022/04/05 10:07:53;;;;;;;;;;;18.30;48.20;;;;;;5022163;28;19920;-62
2022/04/05 10:10:19;;;;;;;;;;;18.30;48.20;;;;;;5037229;28;19913;-62
2022/04/05 10:12:46;;;;;;;;;;;18.30;48.20;;;;;;5028550;28;19948;-62
2022/04/05 10:15:11;;;;;;;;;;;18.30;48.20;;;;;;5033280;28;20469;-61
2022/04/05 10:17:37;;;;;;;;;;;18.30;48.30;;;;;;5021066;28;19913;-61
2022/04/05 10:20:03;;;;;;;;;;;18.30;48.30;;;;;;5019977;28;20279;-60
2022/04/05 10:22:28;;;;;;;;;;;18.30;48.30;;;;;;5004146;28;19910;-62
2022/04/05 10:24:54;;;;;;;;;;;18.30;48.30;;;;;;5017258;28;20441;-62
2022/04/05 10:27:19;;;;;;;;;;;18.30;48.30;;;;;;5030985;28;19909;-61
2022/04/05 10:29:45;;;;;;;;;;;18.30;48.30;;;;;;5040694;28;19913;-61
2022/04/05 10:32:21;;;;;;;;;;;18.30;48.30;;;;;;5025969;28;19924;-63
2022/04/05 10:34:50;;;;;;;;;;;18.30;48.30;;;;;;5016556;28;20330;-62
2022/04/05 10:37:30;;;;;;;;;;;18.30;48.30;;;;;;5036644;28;19999;-61
2022/04/05 10:39:56;;;;;;;;;;;18.30;48.30;;;;;;5021320;28;19924;-62
2022/04/05 10:42:22;;;;;;;;;;;18.30;48.40;;;;;;5024048;28;20003;-62
2022/04/05 10:45:13;;;;;;;;;;;18.30;48.40;;;;;;5001581;28;19936;-61
2022/04/05 10:47:58;;;;;;;;;;;18.30;48.30;;;;;;5026645;28;19913;-62
2022/04/05 10:50:23;;;;;;;;;;;18.30;48.30;;;;;;5034833;28;20615;-62
2022/04/05 10:52:49;;;;;;;;;;;18.40;48.30;;;;;;5023460;28;19913;-63
2022/04/05 10:55:20;;;;;;;;;;;18.40;48.40;;;;;;5024480;28;20590;-63
2022/04/05 10:57:46;;;;;;;;;;;18.40;48.30;;;;;;5020317;28;19916;-65
2022/04/05 11:00:25;;;;;;;;;;;18.40;48.30;;;;;;5021046;28;19913;-62
2022/04/05 11:02:51;;;;;;;;;;;18.30;48.30;;;;;;5022098;28;19913;-62
2022/04/05 11:05:19;;;;;;;;;;;18.30;48.40;;;;;;5001588;28;19971;-62
2022/04/05 11:07:51;;;;;;;;;;;18.30;48.40;;;;;;5024678;28;19931;-61
2022/04/05 11:10:18;;;;;;;;;;;18.30;48.40;;;;;;5040253;28;19909;-61
2022/04/05 11:12:43;;;;;;;;;;;18.30;48.50;;;;;;5041016;28;19913;-62
2022/04/05 11:15:09;;;;;;;;;;;18.30;48.50;;;;;;5023433;28;19909;-63
2022/04/05 11:17:36;;;;;;;;;;;18.40;48.50;;;;;;5028509;28;19909;-63
2022/04/05 11:20:01;;;;;;;;;;;18.30;48.50;;;;;;5013559;28;19974;-63
2022/04/05 11:22:28;;;;;;;;;;;18.30;48.50;;;;;;5018642;28;20010;-62
2022/04/05 11:24:59;;;;;;;;;;;18.40;48.50;;;;;;5041496;28;20822;-62
2022/04/05 11:27:31;;;;;;;;;;;18.40;48.50;;;;;;5032375;28;19967;-62
2022/04/05 11:30:15;;;;;;;;;;;18.40;48.50;;;;;;5006670;28;19910;-63
2022/04/05 11:33:00;;;;;;;;;;;18.30;48.40;;;;;;5023541;28;20435;-62
2022/04/05 11:35:26;;;;;;;;;;;18.40;48.50;;;;;;5041161;28;19917;-62
2022/04/05 11:37:52;;;;;;;;;;;18.40;48.40;;;;;;5030771;28;19913;-63
2022/04/05 11:40:17;;;;;;;;;;;18.40;48.40;;;;;;5017051;28;19959;-62
2022/04/05 11:42:43;;;;;;;;;;;18.40;48.50;;;;;;5021128;28;19913;-61
2022/04/05 11:45:08;;;;;;;;;;;18.40;48.50;;;;;;5044875;28;20034;-62
2022/04/05 11:47:33;;;;;;;;;;;18.40;48.50;;;;;;5035658;28;19919;-62
2022/04/05 11:49:59;;;;;;;;;;;18.40;48.40;;;;;;5009193;28;19910;-62
2022/04/05 11:52:28;;;;;;;;;;;18.40;48.50;;;;;;5038972;28;20633;-62
2022/04/05 11:57:44;;;;;;;;;;;18.40;48.40;;;;;;5036830;28;19936;-62
2022/04/05 12:00:10;;;;;;;;;;;18.40;48.50;;;;;;5004311;28;20074;-62
2022/04/05 12:02:35;;;;;;;;;;;18.40;48.50;;;;;;5013113;28;19909;-62
2022/04/05 12:05:01;;;;;;;;;;;18.40;48.40;;;;;;5044169;28;19925;-62
2022/04/05 12:07:31;;;;;;;;;;;18.30;48.30;;;;;;5040513;28;19913;-62
2022/04/05 12:09:56;;;;;;;;;;;18.30;48.40;;;;;;5013675;28;20633;-62
2022/04/05 12:12:24;;;;;;;;;;;18.30;48.30;;;;;;5006192;28;19920;-62
2022/04/05 12:14:49;;;;;;;;;;;18.30;48.40;;;;;;5023809;28;20002;-62
2022/04/05 12:17:15;;;;;;;;;;;18.30;48.50;;;;;;5022158;28;19964;-63
2022/04/05 12:19:41;;;;;;;;;;;18.30;48.40;;;;;;5004090;28;19945;-62
2022/04/05 12:22:07;;;;;;;;;;;18.30;48.50;;;;;;5024343;28;20032;-63
2022/04/05 12:24:33;;;;;;;;;;;18.30;48.60;;;;;;5038812;28;20334;-63
2022/04/05 12:26:59;;;;;;;;;;;18.30;48.60;;;;;;5043213;28;19912;-63
2022/04/05 12:29:28;;;;;;;;;;;18.30;48.70;;;;;;5024536;28;20447;-63
2022/04/05 12:31:54;;;;;;;;;;;18.20;48.70;;;;;;5004498;28;19950;-62
2022/04/05 12:34:19;;;;;;;;;;;18.20;48.70;;;;;;5019349;28;19936;-62
2022/04/05 12:36:58;;;;;;;;;;;18.20;48.70;;;;;;5023690;28;19963;-62
2022/04/05 12:39:27;;;;;;;;;;;18.20;48.70;;;;;;5008229;28;19971;-63
2022/04/05 12:41:53;;;;;;;;;;;18.30;48.80;;;;;;5003801;28;20000;-62
2022/04/05 12:44:20;;;;;;;;;;;18.20;48.70;;;;;;5031329;28;20074;-63
2022/04/05 12:46:49;;;;;;;;;;;18.20;48.70;;;;;;5043469;28;19924;-63
2022/04/05 12:49:18;;;;;;;;;;;18.20;48.70;;;;;;5030621;28;20284;-63
2022/04/05 12:51:44;;;;;;;;;;;18.20;48.70;;;;;;5006854;28;19928;-63
2022/04/05 12:54:23;;;;;;;;;;;18.20;48.70;;;;;;5015395;28;19913;-63
2022/04/05 12:56:48;;;;;;;;;;;18.20;48.70;;;;;;5036074;28;20535;-61
2022/04/05 12:59:14;;;;;;;;;;;18.30;48.70;;;;;;5031750;28;19917;-63
2022/04/05 13:01:39;;;;;;;;;;;18.30;48.60;;;;;;5018403;28;20029;-62
2022/04/05 13:04:06;;;;;;;;;;;18.30;48.50;;;;;;5024581;28;19920;-62
2022/04/05 13:06:34;;;;;;;;;;;18.30;48.40;;;;;;5043542;28;19913;-62
2022/04/05 13:09:09;;;;;;;;;;;18.30;48.40;;;;;;5042519;28;19952;-64
2022/04/05 13:11:35;;;;;;;;;;;18.40;48.40;;;;;;5043388;28;19916;-63
2022/04/05 13:14:07;;;;;;;;;;;18.40;48.40;;;;;;5036600;28;20526;-63
2022/04/05 13:16:33;;;;;;;;;;;18.40;48.30;;;;;;5011967;28;19967;-62
2022/04/05 13:19:06;;;;;;;;;;;18.40;48.30;;;;;;5008997;28;19913;-58
2022/04/05 13:21:33;;;;;;;;;;;18.50;48.40;;;;;;5022846;28;19939;-62
2022/04/05 13:24:02;;;;;;;;;;;18.40;48.30;;;;;;5033608;28;19909;-63
2022/04/05 13:26:28;;;;;;;;;;;18.50;48.40;;;;;;5012563;28;19914;-62
2022/04/05 13:29:09;;;;;;;;;;;18.50;48.40;;;;;;5006718;28;20408;-63
2022/04/05 13:31:41;;;;;;;;;;;18.50;48.30;;;;;;5037907;28;19908;-62
2022/04/05 13:34:07;;;;;;;;;;;18.50;48.30;;;;;;5037259;28;19913;-63
2022/04/05 13:36:33;;;;;;;;;;;18.50;48.30;;;;;;5007419;28;19952;-62
2022/04/05 13:38:58;;;;;;;;;;;18.50;48.30;;;;;;4997476;28;19909;-62
2022/04/05 13:41:24;;;;;;;;;;;18.50;48.20;;;;;;5022421;28;19967;-62
2022/04/05 13:43:49;;;;;;;;;;;18.50;48.30;;;;;;5038194;28;19908;-62
2022/04/05 13:46:15;;;;;;;;;;;18.50;48.20;;;;;;5014181;28;20012;-64
2022/04/05 13:48:40;;;;;;;;;;;18.50;48.20;;;;;;5003119;28;19997;-63
2022/04/05 13:51:05;;;;;;;;;;;18.50;48.20;;;;;;5029365;28;19920;-62
2022/04/05 13:53:31;;;;;;;;;;;18.60;48.30;;;;;;5024840;28;20488;-62
2022/04/05 13:55:57;;;;;;;;;;;18.50;48.20;;;;;;5023164;28;19936;-62
2022/04/05 13:58:22;;;;;;;;;;;18.60;48.10;;;;;;5004031;28;19920;-64
2022/04/05 14:00:47;;;;;;;;;;;18.50;48.10;;;;;;5020500;28;19971;-62
2022/04/05 14:03:13;;;;;;;;;;;18.60;48.10;;;;;;5022937;28;19913;-62
2022/04/05 14:05:38;;;;;;;;;;;18.60;48.00;;;;;;5010265;28;20378;-62
2022/04/05 14:08:05;;;;;;;;;;;18.60;48.00;;;;;;5002553;28;19913;-62
2022/04/05 14:10:31;;;;;;;;;;;18.60;48.00;;;;;;5021074;28;20379;-62
2022/04/05 14:12:56;;;;;;;;;;;18.60;48.00;;;;;;5042282;28;19909;-61
2022/04/05 14:15:22;;;;;;;;;;;18.60;48.00;;;;;;5031767;28;20271;-63